Time;durP1;ratioP1;P1;durP2;ratioP2;P2;SDS_P1;SDS_P2;PMS_P1;PMS_P2;Temp;Humidity;BMP_temperature;BMP_pressure;BME280_temperature;BME280_humidity;BME280_pressure;Samples;Min_cycle;Max_cycle;Signal;HPM_P1;HPM_P2
2023/01/26 00:00:29;;;;;;;17.70;12.40;;;;;;;-2.37;95.42;97281.58;108703;1267;23825;-76
2023/01/26 00:03:21;;;;;;;17.90;12.70;;;;;;;-2.35;95.43;97274.48;108713;1266;27637;-76
2023/01/26 00:05:52;;;;;;;19.00;12.10;;;;;;;-2.36;95.26;97273.01;108690;1266;34854;-76
2023/01/26 00:08:23;;;;;;;17.80;12.10;;;;;;;-2.40;95.15;97272.61;108700;1266;23825;-76
2023/01/26 00:10:55;;;;;;;18.20;12.80;;;;;;;-2.40;94.97;97273.78;108737;1266;22649;-76
2023/01/26 00:13:29;;;;;;;17.80;11.80;;;;;;;-2.34;95.35;97277.70;108832;1273;22637;-76
2023/01/26 00:16:00;;;;;;;16.70;12.30;;;;;;;-2.31;95.51;97272.02;108753;1273;27286;-76
2023/01/26 00:18:31;;;;;;;17.70;11.90;;;;;;;-2.26;95.65;97268.36;108796;1273;22568;-76
2023/01/26 00:21:04;;;;;;;16.10;11.60;;;;;;;-2.23;95.54;97266.81;108760;1267;22527;-76
2023/01/26 00:23:36;;;;;;;18.00;11.70;;;;;;;-2.21;95.53;97263.56;108799;1273;22553;-76
2023/01/26 00:26:10;;;;;;;16.20;11.90;;;;;;;-2.21;95.28;97264.33;108735;1266;22640;-76
2023/01/26 00:28:42;;;;;;;15.90;11.70;;;;;;;-2.19;95.13;97261.63;108793;1273;22532;-76
2023/01/26 00:31:15;;;;;;;16.20;10.90;;;;;;;-2.16;95.20;97262.45;108787;1273;22768;-76
2023/01/26 00:33:47;;;;;;;16.90;12.10;;;;;;;-2.17;95.12;97253.90;108751;1273;23235;-76
2023/01/26 00:36:20;;;;;;;17.90;12.50;;;;;;;-2.22;94.77;97246.90;108702;1273;22566;-76
2023/01/26 00:38:51;;;;;;;18.60;11.60;;;;;;;-2.25;94.76;97249.65;108784;1274;22529;-76
2023/01/26 00:44:11;;;;;;;18.50;12.60;;;;;;;-2.28;94.67;97244.01;108745;1272;24211;-76
2023/01/26 00:46:41;;;;;;;19.60;12.70;;;;;;;-2.30;94.71;97243.55;108774;1274;25288;-76
2023/01/26 00:49:12;;;;;;;16.90;12.20;;;;;;;-2.29;94.87;97247.02;108789;1273;22531;-76
2023/01/26 00:51:43;;;;;;;19.20;11.70;;;;;;;-2.29;94.66;97244.67;108784;1266;23428;-76
2023/01/26 00:54:14;;;;;;;19.00;12.20;;;;;;;-2.32;94.63;97239.61;108718;1273;25233;-76
2023/01/26 00:56:45;;;;;;;16.70;11.40;;;;;;;-2.35;94.12;97234.46;108810;1274;24018;-76
2023/01/26 00:59:16;;;;;;;16.00;9.60;;;;;;;-2.40;93.82;97230.65;108773;1273;24199;-76
2023/01/26 01:01:48;;;;;;;17.60;10.60;;;;;;;-2.44;94.03;97228.84;108777;1273;26379;-76
2023/01/26 01:04:19;;;;;;;15.40;10.10;;;;;;;-2.46;94.07;97225.70;108690;1273;25243;-76
2023/01/26 01:06:50;;;;;;;15.00;8.40;;;;;;;-2.48;94.06;97214.46;108688;1268;22552;-76
2023/01/26 01:09:24;;;;;;;16.30;10.60;;;;;;;-2.51;93.94;97218.34;108672;1273;23534;-76
2023/01/26 01:11:55;;;;;;;15.10;8.70;;;;;;;-2.54;94.19;97218.88;108684;1273;23975;-76
2023/01/26 01:14:25;;;;;;;14.60;9.50;;;;;;;-2.57;94.22;97217.13;108675;1269;22523;-76
2023/01/26 01:16:56;;;;;;;16.30;9.90;;;;;;;-2.57;94.44;97212.85;108701;1270;24298;-76
2023/01/26 01:19:27;;;;;;;16.40;10.70;;;;;;;-2.56;94.45;97207.02;108692;1273;22540;-76
2023/01/26 01:22:01;;;;;;;16.70;10.60;;;;;;;-2.56;94.68;97204.75;108714;1273;22520;-76
2023/01/26 01:24:35;;;;;;;15.40;9.10;;;;;;;-2.54;94.94;97197.91;108707;1273;24290;-76
2023/01/26 01:27:06;;;;;;;16.00;10.40;;;;;;;-2.53;94.68;97194.70;108703;1272;22528;-76
2023/01/26 01:29:38;;;;;;;16.20;9.40;;;;;;;-2.54;94.75;97193.92;108691;1266;22521;-76
2023/01/26 01:32:08;;;;;;;18.80;10.30;;;;;;;-2.54;94.84;97202.00;108682;1273;22568;-76
2023/01/26 01:34:39;;;;;;;16.40;9.90;;;;;;;-2.53;94.84;97194.99;108625;1266;23282;-76
2023/01/26 01:37:10;;;;;;;16.90;10.50;;;;;;;-2.55;94.61;97192.35;108727;1273;23009;-76
2023/01/26 01:39:41;;;;;;;16.90;10.70;;;;;;;-2.57;94.73;97190.49;108707;1273;23375;-76
2023/01/26 01:42:14;;;;;;;17.10;9.80;;;;;;;-2.56;95.00;97192.90;108691;1273;26576;-76
2023/01/26 01:45:07;;;;;;;15.90;11.10;;;;;;;-2.55;94.74;97189.35;108694;1273;22544;-76
2023/01/26 01:47:38;;;;;;;19.10;11.00;;;;;;;-2.56;94.86;97190.02;108668;1273;22522;-75
2023/01/26 01:50:17;;;;;;;18.10;11.60;;;;;;;-2.56;94.58;97188.34;108662;1274;22574;-75
2023/01/26 01:52:48;;;;;;;19.40;10.70;;;;;;;-2.55;94.78;97183.67;108668;1266;22540;-75
2023/01/26 01:55:20;;;;;;;17.40;10.90;;;;;;;-2.55;94.60;97182.20;108650;1274;22539;-75
2023/01/26 01:57:54;;;;;;;19.60;11.80;;;;;;;-2.56;94.72;97177.88;108689;1274;22547;-75
2023/01/26 02:00:26;;;;;;;16.80;10.50;;;;;;;-2.56;94.68;97175.16;108742;1273;23106;-76
2023/01/26 02:03:14;;;;;;;15.50;10.30;;;;;;;-2.56;94.57;97171.14;108710;1272;23052;-76
2023/01/26 02:06:03;;;;;;;16.20;9.00;;;;;;;-2.54;94.42;97168.13;108619;1273;22567;-76
2023/01/26 02:08:37;;;;;;;18.20;10.80;;;;;;;-2.57;94.28;97167.89;108699;1267;22547;-76
2023/01/26 02:11:11;;;;;;;18.70;11.00;;;;;;;-2.59;94.49;97174.61;108706;1270;22543;-76
2023/01/26 02:13:47;;;;;;;18.90;11.70;;;;;;;-2.59;94.31;97169.10;108679;1273;25105;-76
2023/01/26 02:16:19;;;;;;;17.10;10.60;;;;;;;-2.58;94.39;97165.13;108696;1269;22520;-76
2023/01/26 02:18:50;;;;;;;16.40;9.90;;;;;;;-2.58;94.55;97160.17;108687;1274;22558;-76
2023/01/26 02:21:23;;;;;;;16.10;10.70;;;;;;;-2.61;94.42;97152.75;108644;1267;22532;-76
2023/01/26 02:24:05;;;;;;;14.00;9.20;;;;;;;-2.62;94.67;97155.90;108672;1266;22550;-76
2023/01/26 02:26:37;;;;;;;16.00;10.00;;;;;;;-2.57;94.66;97153.51;108736;1266;22518;-76
2023/01/26 02:29:10;;;;;;;15.90;9.90;;;;;;;-2.57;94.50;97151.48;108708;1273;22563;-76
2023/01/26 02:31:42;;;;;;;17.40;9.80;;;;;;;-2.57;94.67;97148.09;108723;1269;22533;-76
2023/01/26 02:34:13;;;;;;;15.50;9.10;;;;;;;-2.60;94.40;97148.58;108640;1266;25495;-77
2023/01/26 02:36:43;;;;;;;17.40;8.60;;;;;;;-2.61;94.38;97151.72;108704;1273;22626;-76
2023/01/26 02:39:34;;;;;;;16.70;8.90;;;;;;;-2.59;94.24;97150.58;108665;1273;24133;-76
2023/01/26 02:44:54;;;;;;;18.10;10.30;;;;;;;-2.53;94.37;97150.73;108635;1274;22537;-76
2023/01/26 02:47:25;;;;;;;14.90;9.70;;;;;;;-2.51;94.55;97151.53;108649;1273;22527;-76
2023/01/26 02:49:59;;;;;;;13.00;8.10;;;;;;;-2.49;94.43;97151.23;108692;1273;22545;-76
2023/01/26 02:52:31;;;;;;;13.90;8.60;;;;;;;-2.46;94.52;97153.69;108677;1273;22574;-76
2023/01/26 02:57:51;;;;;;;16.20;8.60;;;;;;;-2.46;94.46;97155.05;108724;1269;22518;-76
2023/01/26 03:00:25;;;;;;;13.50;8.10;;;;;;;-2.44;94.48;97152.71;108680;1267;22536;-76
2023/01/26 03:02:58;;;;;;;14.60;8.30;;;;;;;-2.41;94.81;97148.23;108689;1273;22521;-76
2023/01/26 03:05:29;;;;;;;15.70;9.40;;;;;;;-2.43;94.40;97145.89;108602;1274;22520;-76
2023/01/26 03:08:00;;;;;;;15.20;8.90;;;;;;;-2.44;94.41;97140.33;108738;1273;25294;-76
2023/01/26 03:10:31;;;;;;;16.00;9.50;;;;;;;-2.42;94.64;97137.91;108671;1267;22691;-75
2023/01/26 03:13:02;;;;;;;15.10;9.20;;;;;;;-2.44;94.44;97132.06;108669;1273;22564;-76
2023/01/26 03:15:42;;;;;;;14.40;9.10;;;;;;;-2.44;94.60;97127.27;108667;1270;22983;-76
2023/01/26 03:29:33;;;;;;;16.10;9.50;;;;;;;-2.48;95.20;97123.08;108654;1273;22918;-76
2023/01/26 03:32:05;;;;;;;15.10;10.20;;;;;;;-2.45;95.03;97121.66;108740;1273;24814;-76
2023/01/26 03:34:36;;;;;;;17.60;10.20;;;;;;;-2.40;95.19;97120.25;108669;1266;22865;-76
2023/01/26 03:37:07;;;;;;;15.20;9.00;;;;;;;-2.36;95.32;97118.77;108708;1273;22562;-76
2023/01/26 03:56:39;;;;;;;15.90;9.80;;;;;;;-2.21;95.64;97109.73;108732;1266;22521;-76
2023/01/26 03:59:14;;;;;;;14.90;7.80;;;;;;;-2.22;95.49;97107.89;108736;1266;22547;-76
2023/01/26 04:10:21;;;;;;;12.70;7.40;;;;;;;-2.37;95.39;97098.52;108735;1267;24212;-76
2023/01/26 04:21:27;;;;;;;16.80;8.80;;;;;;;-2.47;95.39;97088.19;108716;1266;22532;-76
2023/01/26 04:24:00;;;;;;;13.60;8.30;;;;;;;-2.50;95.58;97082.45;108689;1266;22536;-76
2023/01/26 04:26:34;;;;;;;12.50;8.20;;;;;;;-2.49;95.53;97079.94;108655;1265;22579;-76
2023/01/26 04:29:10;;;;;;;12.20;8.20;;;;;;;-2.46;95.77;97071.49;108695;1265;22555;-76
2023/01/26 04:31:42;;;;;;;14.20;8.30;;;;;;;-2.44;95.65;97067.37;108727;1266;22524;-76
2023/01/26 04:34:15;;;;;;;14.00;8.30;;;;;;;-2.43;95.73;97065.73;108712;1265;22571;-76
2023/01/26 04:36:46;;;;;;;13.80;8.70;;;;;;;-2.39;95.83;97067.92;108790;1269;22614;-76
2023/01/26 04:39:17;;;;;;;10.60;7.40;;;;;;;-2.34;95.68;97069.46;108781;1266;22527;-75
2023/01/26 04:41:48;;;;;;;14.20;8.40;;;;;;;-2.33;95.57;97065.12;108744;1266;22548;-76
2023/01/26 04:44:19;;;;;;;13.70;8.80;;;;;;;-2.30;95.71;97065.09;108660;1265;23721;-77
2023/01/26 04:46:50;;;;;;;13.90;8.40;;;;;;;-2.27;95.82;97059.80;108668;1266;22522;-76
2023/01/26 04:49:24;;;;;;;13.30;8.10;;;;;;;-2.23;95.82;97059.42;108153;1266;690024;-76
2023/01/26 04:51:55;;;;;;;12.40;7.90;;;;;;;-2.22;95.70;97058.43;108753;1266;22523;-76
2023/01/26 04:54:27;;;;;;;12.90;8.50;;;;;;;-2.23;95.63;97060.59;108614;1265;22517;-76
2023/01/26 04:56:59;;;;;;;13.40;8.30;;;;;;;-2.21;95.63;97055.48;108647;1269;23723;-76
2023/01/26 04:59:31;;;;;;;13.10;7.60;;;;;;;-2.19;95.67;97049.19;108694;1266;22971;-76
2023/01/26 05:02:03;;;;;;;15.20;8.60;;;;;;;-2.22;95.74;97053.68;108759;1267;22514;-76
2023/01/26 05:04:38;;;;;;;13.50;8.70;;;;;;;-2.25;95.37;97054.17;108721;1266;22517;-76
2023/01/26 05:07:09;;;;;;;14.90;10.00;;;;;;;-2.26;95.58;97044.87;108766;1267;24192;-76
2023/01/26 05:09:41;;;;;;;14.40;8.80;;;;;;;-2.27;95.81;97045.79;108741;1266;24213;-76
2023/01/26 05:15:01;;;;;;;13.50;8.70;;;;;;;-2.24;95.62;97042.45;108804;1265;22572;-76
2023/01/26 05:17:35;;;;;;;14.90;8.90;;;;;;;-2.20;96.04;97040.66;108753;1265;22623;-76
2023/01/26 05:20:07;;;;;;;14.10;8.80;;;;;;;-2.17;96.05;97040.28;108736;1267;22523;-75
2023/01/26 05:22:38;;;;;;;14.50;9.30;;;;;;;-2.13;96.11;97037.91;108753;1266;23232;-75
2023/01/26 05:25:10;;;;;;;14.70;8.80;;;;;;;-2.10;96.30;97035.23;108757;1269;22670;-76
2023/01/26 05:27:41;;;;;;;16.50;9.60;;;;;;;-2.06;96.30;97031.87;108776;1266;24272;-76
2023/01/26 05:30:15;;;;;;;14.90;9.10;;;;;;;-2.03;96.17;97037.64;108724;1266;25952;-77
2023/01/26 05:32:48;;;;;;;15.70;8.90;;;;;;;-2.00;96.17;97040.70;108820;1266;22540;-77
2023/01/26 05:35:20;;;;;;;13.60;8.70;;;;;;;-2.00;96.39;97043.73;108716;1266;22552;-76
2023/01/26 05:37:51;;;;;;;15.20;9.40;;;;;;;-2.02;96.27;97047.27;108682;1269;22580;-76
2023/01/26 05:40:23;;;;;;;16.20;9.30;;;;;;;-2.02;96.24;97048.08;108783;1266;22703;-75
2023/01/26 05:42:55;;;;;;;13.90;9.50;;;;;;;-1.98;96.39;97049.58;108695;1266;22536;-75
2023/01/26 05:45:28;;;;;;;13.90;8.10;;;;;;;-1.97;96.37;97054.11;108799;1267;22537;-76
2023/01/26 05:47:59;;;;;;;15.70;9.10;;;;;;;-1.96;96.31;97054.10;108768;1266;22537;-76
2023/01/26 05:50:30;;;;;;;14.30;8.50;;;;;;;-1.95;96.27;97046.91;108759;1266;22587;-76
2023/01/26 05:53:01;;;;;;;14.80;8.70;;;;;;;-1.94;96.27;97046.48;108761;1266;22545;-76
2023/01/26 05:55:34;;;;;;;15.30;9.30;;;;;;;-1.94;96.38;97045.04;108751;1266;28980;-76
2023/01/26 05:58:07;;;;;;;15.70;10.80;;;;;;;-1.93;96.42;97046.52;108791;1269;23706;-76
2023/01/26 06:00:38;;;;;;;16.90;10.60;;;;;;;-1.94;96.56;97044.16;108756;1269;22546;-76
2023/01/26 06:03:10;;;;;;;16.90;10.40;;;;;;;-1.94;96.50;97045.55;108753;1266;22552;-76
2023/01/26 06:05:41;;;;;;;16.10;10.60;;;;;;;-1.94;96.32;97044.40;108729;1269;22673;-76
2023/01/26 06:08:12;;;;;;;16.10;10.90;;;;;;;-1.97;96.48;97041.11;108800;1273;22528;-76
2023/01/26 06:10:43;;;;;;;21.40;13.10;;;;;;;-1.99;96.29;97039.55;108757;1273;22519;-75
2023/01/26 06:13:14;;;;;;;19.30;12.30;;;;;;;-1.99;96.38;97038.73;108681;1271;22631;-76
2023/01/26 06:15:46;;;;;;;16.90;11.20;;;;;;;-2.01;96.44;97037.80;108603;1266;22548;-76
2023/01/26 06:18:17;;;;;;;16.30;10.30;;;;;;;-2.06;96.43;97035.95;108674;1273;22522;-76
2023/01/26 06:20:48;;;;;;;15.80;10.90;;;;;;;-2.11;96.12;97033.06;108685;1256;25440;-75
2023/01/26 06:23:19;;;;;;;17.70;11.50;;;;;;;-2.20;96.14;97037.11;108702;1273;23429;-76
2023/01/26 06:25:51;;;;;;;18.30;12.00;;;;;;;-2.26;95.98;97038.05;108652;1271;22999;-75
2023/01/26 06:28:22;;;;;;;17.70;11.40;;;;;;;-2.29;95.99;97038.66;108653;1273;24673;-76
2023/01/26 06:30:58;;;;;;;20.90;13.10;;;;;;;-2.33;96.19;97038.23;108684;1273;22524;-75
2023/01/26 06:33:31;;;;;;;19.20;11.90;;;;;;;-2.34;96.16;97038.61;108667;1269;22536;-75
2023/01/26 06:36:04;;;;;;;21.70;13.30;;;;;;;-2.37;96.35;97037.20;108701;1273;22643;-75
2023/01/26 06:38:35;;;;;;;19.70;13.40;;;;;;;-2.37;96.38;97034.21;108693;1273;22531;-75
2023/01/26 06:41:09;;;;;;;20.70;13.50;;;;;;;-2.37;96.62;97037.24;108672;1273;22532;-75
2023/01/26 06:43:40;;;;;;;20.30;13.00;;;;;;;-2.38;96.64;97041.99;108699;1266;24206;-75
2023/01/26 06:46:11;;;;;;;21.20;13.90;;;;;;;-2.39;96.36;97038.48;108659;1269;24254;-75
2023/01/26 06:48:43;;;;;;;23.20;14.70;;;;;;;-2.41;96.54;97040.94;108712;1273;22536;-75
2023/01/26 06:51:54;;;;;;;22.40;15.20;;;;;;;-2.40;96.59;97043.78;108727;1272;22533;-75
2023/01/26 06:54:25;;;;;;;23.60;14.50;;;;;;;-2.39;96.78;97046.58;108684;1273;22684;-76
2023/01/26 06:56:56;;;;;;;29.80;17.80;;;;;;;-2.41;96.97;97047.30;108669;1274;22527;-75
2023/01/26 06:59:27;;;;;;;28.50;17.30;;;;;;;-2.45;96.91;97046.73;108666;1266;22539;-75
2023/01/26 07:01:58;;;;;;;33.00;18.30;;;;;;;-2.47;96.75;97046.38;108684;1267;22525;-76
2023/01/26 07:04:29;;;;;;;27.40;16.60;;;;;;;-2.50;96.96;97047.02;108790;1269;22564;-76
2023/01/26 07:07:00;;;;;;;29.00;18.60;;;;;;;-2.49;97.13;97045.91;108790;1269;22543;-76
2023/01/26 07:09:31;;;;;;;26.40;16.80;;;;;;;-2.48;97.16;97045.02;108766;1270;22531;-76
2023/01/26 07:12:13;;;;;;;26.50;16.60;;;;;;;-2.47;97.04;97039.90;108779;1261;23360;-77
2023/01/26 07:14:46;;;;;;;26.60;17.70;;;;;;;-2.45;97.34;97041.11;108704;1269;22559;-77
2023/01/26 07:17:17;;;;;;;23.50;16.50;;;;;;;-2.43;97.13;97040.33;108782;1273;23860;-77
2023/01/26 07:19:48;;;;;;;27.00;17.60;;;;;;;-2.43;97.31;97038.73;108829;1266;25274;-77
2023/01/26 07:22:20;;;;;;;27.90;17.50;;;;;;;-2.43;97.23;97035.62;108849;1266;22535;-77
2023/01/26 07:24:51;;;;;;;29.40;18.00;;;;;;;-2.44;97.41;97040.64;108765;1269;30885;-77
2023/01/26 07:27:23;;;;;;;30.50;17.80;;;;;;;-2.45;97.39;97036.96;108786;1273;22546;-77
2023/01/26 07:29:54;;;;;;;26.90;17.30;;;;;;;-2.45;97.54;97034.13;108806;1273;22606;-77
2023/01/26 07:32:25;;;;;;;27.90;17.70;;;;;;;-2.45;97.36;97035.56;108779;1273;22539;-77
2023/01/26 07:34:56;;;;;;;29.60;19.50;;;;;;;-2.45;97.50;97032.05;108783;1266;22715;-76
2023/01/26 07:37:30;;;;;;;31.30;19.40;;;;;;;-2.43;97.50;97038.02;108591;1273;22555;-78
2023/01/26 07:40:02;;;;;;;28.80;18.20;;;;;;;-2.40;97.62;97036.45;108704;1273;25254;-78
2023/01/26 07:42:33;;;;;;;28.50;19.30;;;;;;;-2.37;97.79;97036.56;108817;1273;23254;-78
2023/01/26 07:45:05;;;;;;;29.20;18.40;;;;;;;-2.37;97.48;97034.00;108784;1269;22547;-78
2023/01/26 07:47:37;;;;;;;28.00;17.50;;;;;;;-2.35;97.80;97032.10;108743;1266;25261;-78
2023/01/26 07:50:09;;;;;;;28.30;18.40;;;;;;;-2.34;97.60;97027.44;108770;1269;22519;-77
2023/01/26 07:52:40;;;;;;;31.70;20.70;;;;;;;-2.33;97.61;97024.05;108748;1273;25232;-77
2023/01/26 07:55:15;;;;;;;27.80;18.20;;;;;;;-2.31;97.50;97021.79;108659;1269;29187;-77
2023/01/26 07:57:49;;;;;;;29.50;19.70;;;;;;;-2.25;97.60;97017.88;108690;1272;23850;-77
2023/01/26 08:00:21;;;;;;;27.50;18.40;;;;;;;-2.22;97.62;97012.89;108674;1273;24177;-77
2023/01/26 08:02:52;;;;;;;24.20;16.70;;;;;;;-2.20;97.80;97010.86;108784;1265;22547;-77
2023/01/26 08:05:24;;;;;;;28.90;18.20;;;;;;;-2.15;97.72;97009.89;108620;1266;22537;-77
2023/01/26 08:07:59;;;;;;;28.50;17.30;;;;;;;-2.10;97.69;97010.64;108659;1269;22597;-77
2023/01/26 08:10:31;;;;;;;29.10;18.70;;;;;;;-2.05;97.76;97015.90;108634;1269;22575;-77
2023/01/26 08:13:02;;;;;;;27.10;18.00;;;;;;;-1.97;97.85;97013.19;108717;1273;22528;-77
2023/01/26 08:15:33;;;;;;;27.50;16.60;;;;;;;-1.88;98.26;97016.61;108674;1267;22561;-77
2023/01/26 08:18:04;;;;;;;23.30;15.20;;;;;;;-1.84;97.79;97013.50;108666;1269;25382;-76
2023/01/26 08:20:35;;;;;;;26.30;16.90;;;;;;;-1.86;97.49;97017.89;108660;1273;22529;-79
2023/01/26 08:23:06;;;;;;;26.90;17.80;;;;;;;-1.82;97.62;97018.23;109040;1273;22525;-79
2023/01/26 08:25:37;;;;;;;30.30;20.20;;;;;;;-1.77;97.45;97018.05;109011;1273;22534;-78
2023/01/26 08:28:08;;;;;;;29.60;18.80;;;;;;;-1.70;97.49;97013.73;109125;1273;22545;-76
2023/01/26 08:30:41;;;;;;;30.10;19.00;;;;;;;-1.63;97.93;97015.93;108668;1269;22524;-77
2023/01/26 08:33:12;;;;;;;28.10;18.80;;;;;;;-1.58;97.56;97022.68;108711;1269;24262;-77
2023/01/26 08:35:43;;;;;;;27.00;17.20;;;;;;;-1.54;97.41;97021.70;108625;1266;23817;-76
2023/01/26 08:38:14;;;;;;;28.50;18.40;;;;;;;-1.52;97.27;97023.05;108704;1269;22583;-77
2023/01/26 08:40:53;;;;;;;28.50;17.40;;;;;;;-1.52;97.33;97024.52;108720;1272;24384;-77
2023/01/26 08:43:24;;;;;;;29.20;19.10;;;;;;;-1.49;97.20;97020.94;108708;1273;22536;-77
2023/01/26 08:45:55;;;;;;;30.60;18.50;;;;;;;-1.49;97.03;97025.14;108493;1269;24105;-77
2023/01/26 08:48:27;;;;;;;26.90;17.40;;;;;;;-1.49;96.83;97028.02;108517;1269;22554;-76
2023/01/26 08:50:59;;;;;;;27.20;17.70;;;;;;;-1.56;96.54;97027.45;108674;1273;22544;-77
2023/01/26 08:53:34;;;;;;;27.90;18.00;;;;;;;-1.61;96.47;97027.10;108426;1269;22566;-77
2023/01/26 08:56:07;;;;;;;30.90;18.80;;;;;;;-1.62;96.38;97029.27;108694;1273;22559;-76
2023/01/26 08:58:39;;;;;;;26.50;17.50;;;;;;;-1.59;96.65;97028.83;108770;1266;22528;-78
2023/01/26 09:01:13;;;;;;;26.60;17.30;;;;;;;-1.53;96.78;97026.20;109087;1266;22837;-76
2023/01/26 09:03:55;;;;;;;29.60;18.60;;;;;;;-1.51;96.40;97025.37;108803;1273;22514;-76
2023/01/26 09:06:31;;;;;;;27.90;17.70;;;;;;;-1.54;96.34;97028.23;108703;1267;24870;-77
2023/01/26 09:09:03;;;;;;;29.40;18.40;;;;;;;-1.54;96.15;97029.27;108711;1267;22575;-76
2023/01/26 09:11:34;;;;;;;30.60;18.60;;;;;;;-1.52;95.92;97032.68;108671;1260;23597;-77
2023/01/26 09:14:06;;;;;;;25.80;17.80;;;;;;;-1.51;95.89;97027.25;108648;1272;24368;-76
2023/01/26 09:16:37;;;;;;;28.70;18.20;;;;;;;-1.49;95.88;97024.38;108599;1267;22555;-76
2023/01/26 09:19:08;;;;;;;27.40;16.50;;;;;;;-1.42;96.34;97023.00;108631;1267;22539;-76
2023/01/26 09:21:39;;;;;;;24.30;16.50;;;;;;;-1.39;95.78;97019.83;108637;1273;22677;-78
2023/01/26 09:24:12;;;;;;;24.70;15.90;;;;;;;-1.31;96.13;97022.23;108696;1273;25363;-76
2023/01/26 09:26:45;;;;;;;25.40;15.90;;;;;;;-1.20;95.94;97024.33;108551;1269;32212;-77
2023/01/26 09:29:17;;;;;;;25.60;16.00;;;;;;;-1.10;95.96;97022.56;108671;1272;22532;-77
2023/01/26 09:31:48;;;;;;;26.90;18.00;;;;;;;-1.03;95.79;97019.78;108650;1266;22525;-76
2023/01/26 09:34:24;;;;;;;27.70;18.20;;;;;;;-0.97;95.64;97022.93;108707;1273;27017;-77
2023/01/26 09:36:55;;;;;;;27.40;17.50;;;;;;;-0.87;95.78;97019.35;108751;1266;25494;-76
2023/01/26 09:39:26;;;;;;;28.80;17.20;;;;;;;-0.78;95.69;97011.42;108651;1266;25277;-76
2023/01/26 09:42:14;;;;;;;28.70;18.80;;;;;;;-0.72;95.91;97007.58;108715;1266;25399;-76
2023/01/26 09:44:55;;;;;;;26.20;18.90;;;;;;;-0.71;95.40;97000.73;108775;1267;90357;-81
2023/01/26 09:47:40;;;;;;;28.00;18.00;;;;;;;-0.70;95.00;97001.11;108893;1266;22571;-76
2023/01/26 09:50:16;;;;;;;25.80;16.80;;;;;;;-0.65;95.29;96996.59;108765;1267;22543;-75
2023/01/26 09:52:56;;;;;;;26.90;17.70;;;;;;;-0.59;95.26;96991.61;108796;1272;24158;-75
2023/01/26 09:55:31;;;;;;;26.30;17.10;;;;;;;-0.54;94.86;96990.28;108846;1269;25494;-76
2023/01/26 09:58:10;;;;;;;27.70;17.80;;;;;;;-0.50;94.89;96987.15;108883;1272;22763;-76
2023/01/26 10:00:43;;;;;;;;;;;;;;;-0.45;94.66;96988.52;108914;1269;24129;-79
2023/01/26 10:03:24;;;;;;;23.80;15.60;;;;;;;-0.42;94.65;96986.70;108837;1266;22487;-77
2023/01/26 10:06:05;;;;;;;24.50;16.90;;;;;;;-0.47;94.15;96983.98;108906;1272;25441;-76
2023/01/26 10:08:39;;;;;;;26.60;16.80;;;;;;;-0.55;94.19;96976.02;108923;1273;26769;-79
2023/01/26 10:11:17;;;;;;;27.30;18.20;;;;;;;-0.54;94.12;96974.14;108890;1273;22524;-76
2023/01/26 10:13:56;;;;;;;27.60;17.90;;;;;;;-0.47;94.13;96967.45;108895;1269;22546;-81
2023/01/26 10:16:29;;;;;;;24.30;15.50;;;;;;;-0.44;93.91;96954.34;108856;1251;22563;-81
2023/01/26 10:19:06;;;;;;;26.20;17.00;;;;;;;-0.47;93.66;96951.14;108921;1272;22540;-78
2023/01/26 10:21:46;;;;;;;25.20;15.90;;;;;;;-0.46;93.61;96948.92;108902;1266;22502;-76
2023/01/26 10:24:22;;;;;;;26.10;18.30;;;;;;;-0.42;93.67;96941.22;108946;1272;22613;-79
2023/01/26 10:26:57;;;;;;;26.60;19.00;;;;;;;-0.46;93.24;96946.08;108904;1269;22532;-77
2023/01/26 10:29:28;;;;;;;27.40;18.10;;;;;;;-0.39;93.42;96945.13;108890;1267;24311;-77
2023/01/26 10:32:00;;;;;;;26.60;18.60;;;;;;;-0.29;93.67;96948.54;108856;1273;22541;-77
2023/01/26 10:34:32;;;;;;;26.60;18.30;;;;;;;-0.26;93.17;96949.48;108595;1266;22563;-77
2023/01/26 10:37:19;;;;;;;35.80;19.90;;;;;;;-0.21;93.31;96947.73;108738;1267;22517;-76
2023/01/26 10:40:06;;;;;;;29.60;19.90;;;;;;;-0.14;93.18;96945.95;108653;1267;22547;-76
2023/01/26 10:42:38;;;;;;;29.40;19.50;;;;;;;-0.09;93.26;96943.52;108742;1260;22533;-78
2023/01/26 10:45:28;;;;;;;27.90;18.20;;;;;;;-0.04;93.18;96937.04;108977;1270;54593;-76
2023/01/26 10:48:22;;;;;;;32.90;20.70;;;;;;;-0.02;92.55;96931.91;108736;1267;22535;-76
2023/01/26 10:50:55;;;;;;;28.80;19.20;;;;;;;-0.01;92.71;96931.34;108796;1273;22523;-77
2023/01/26 10:53:28;;;;;;;28.50;19.10;;;;;;;-0.07;92.47;96930.16;108677;1269;22543;-77
2023/01/26 10:56:06;;;;;;;27.50;18.00;;;;;;;-0.10;92.17;96926.71;108679;1269;66379;-77
2023/01/26 10:58:45;;;;;;;30.80;18.90;;;;;;;-0.26;91.74;96926.09;108637;1266;22531;-77
2023/01/26 11:01:17;;;;;;;30.10;20.10;;;;;;;-0.40;91.35;96921.73;108658;1267;24654;-77
2023/01/26 11:04:04;;;;;;;35.70;21.70;;;;;;;-0.54;91.32;96920.80;109069;1274;22529;-77
2023/01/26 11:06:38;;;;;;;31.40;20.80;;;;;;;-0.62;91.54;96920.44;109049;1269;22572;-77
2023/01/26 11:09:17;;;;;;;33.90;21.40;;;;;;;-0.67;91.65;96916.61;109083;1269;22521;-77
2023/01/26 11:12:01;;;;;;;30.40;19.50;;;;;;;-0.75;91.51;96915.18;109076;1269;22535;-77
2023/01/26 11:14:35;;;;;;;25.70;16.40;;;;;;;-0.75;91.77;96912.39;108742;1265;22896;-77
2023/01/26 11:17:21;;;;;;;26.90;17.50;;;;;;;-0.75;91.57;96909.94;108758;1266;22538;-77
2023/01/26 11:20:08;;;;;;;23.80;16.80;;;;;;;-0.73;91.91;96909.66;108716;1269;26137;-79
2023/01/26 11:22:48;;;;;;;27.30;17.50;;;;;;;-0.65;91.80;96906.23;109039;1269;26788;-79
2023/01/26 11:25:22;;;;;;;;;;;;;;;-0.56;91.95;96901.86;109009;1269;22516;-80
2023/01/26 11:28:11;;;;;;;26.90;16.60;;;;;;;-0.63;91.22;96899.73;109065;1267;22549;-78
2023/01/26 11:30:48;;;;;;;;;;;;;;;-0.67;90.81;96896.66;109109;1269;22510;-79
2023/01/26 11:33:29;;;;;;;28.30;18.70;;;;;;;-0.71;90.72;96896.77;109155;1266;24255;-79
2023/01/26 11:36:14;;;;;;;31.40;20.00;;;;;;;-0.76;90.78;96895.88;109100;1267;23551;-81
2023/01/26 11:38:57;;;;;;;30.30;19.50;;;;;;;-0.76;90.98;96891.36;109130;1267;26461;-81
2023/01/26 11:41:46;;;;;;;26.90;17.20;;;;;;;-0.66;91.58;96891.13;109192;1266;23118;-80
2023/01/26 11:44:41;;;;;;;25.10;16.10;;;;;;;-0.53;91.89;96887.48;109110;1266;22542;-81
2023/01/26 11:47:36;;;;;;;23.30;15.80;;;;;;;-0.40;92.21;96884.91;109194;1273;22538;-81
2023/01/26 11:50:21;;;;;;;32.10;20.80;;;;;;;-0.40;91.49;96883.23;109090;1271;22564;-80
2023/01/26 11:53:14;;;;;;;33.70;21.10;;;;;;;-0.39;91.65;96875.17;109091;1269;22568;-81
2023/01/26 11:55:56;;;;;;;34.50;23.00;;;;;;;-0.34;91.43;96877.85;109082;1269;22681;-80
2023/01/26 11:58:37;;;;;;;31.60;20.10;;;;;;;-0.31;91.97;96874.15;109132;1266;22562;-80
2023/01/26 12:01:15;;;;;;;33.40;22.50;;;;;;;-0.30;91.29;96871.31;109469;1267;22593;-80
2023/01/26 12:03:49;;;;;;;34.50;22.20;;;;;;;-0.40;90.69;96868.45;109402;1273;22659;-80
2023/01/26 12:06:36;;;;;;;32.20;20.10;;;;;;;-0.40;91.45;96871.92;109263;1273;22629;-80
2023/01/26 12:09:17;;;;;;;;;;;;;;;-0.42;91.07;96868.85;109379;1273;22544;-80
2023/01/26 12:11:55;;;;;;;34.50;22.50;;;;;;;-0.59;90.44;96863.05;109259;1271;22528;-80
2023/01/26 12:14:33;;;;;;;33.80;22.50;;;;;;;-0.56;91.14;96861.00;109165;1269;22531;-80
2023/01/26 12:17:25;;;;;;;32.90;22.20;;;;;;;-0.47;91.61;96862.59;109241;1257;22532;-80
2023/01/26 12:20:04;;;;;;;34.70;22.20;;;;;;;-0.40;91.51;96853.30;109098;1273;24553;-80
2023/01/26 12:22:40;;;;;;;28.70;19.40;;;;;;;-0.49;90.89;96844.45;109127;1273;22543;-80
2023/01/26 12:25:23;;;;;;;34.90;21.30;;;;;;;-0.49;91.26;96845.14;109067;1267;22546;-80
2023/01/26 12:28:01;;;;;;;29.90;20.20;;;;;;;-0.47;91.09;96843.01;109072;1273;22768;-80
2023/01/26 12:30:39;;;;;;;29.70;21.00;;;;;;;-0.63;90.43;96839.34;109115;1273;22534;-80
2023/01/26 12:33:12;;;;;;;33.30;20.20;;;;;;;-0.77;90.32;96838.73;109081;1270;23057;-80
2023/01/26 12:35:58;;;;;;;30.90;20.50;;;;;;;-0.89;90.53;96844.50;109016;1273;22771;-80
2023/01/26 12:38:46;;;;;;;30.70;18.70;;;;;;;-0.92;90.74;96837.06;109054;1273;25350;-80
2023/01/26 12:41:27;;;;;;;28.80;18.70;;;;;;;-0.97;90.98;96835.50;108960;1270;22548;-80